Attila, Illinois
Current Conditions -  °F | °C
As of 8:48 AM on Saturday 25 Oct 2014 (Local Time) from KMWA Reporting Station
Broken Clouds Broken Clouds  
Wind Chill: 63°   Ceiling: 4000
Heat Index: 63°   Visibility: 20mi
Dew Point: 59°   Wind: 6mph
Humidity: 88%   Direction: 230°SW
Pressure: 30.05"   Gusts: NA
Location:  37.7887°N, 88.8655°W
Report Text: KMWA 251348Z 23005KT 20SM BKN040 17/15 A3005
Loading
Personal Weather Stations






























Interactive Weather Map New forecast layout! Learn more

10-Day Weather Forecast

Advertisements
Track Severe Weather on mobile